Time;durP1;ratioP1;P1;durP2;ratioP2;P2;SDS_P1;SDS_P2;PMS_P1;PMS_P2;Temp;Humidity;BMP_temperature;BMP_pressure;BME280_temperature;BME280_humidity;BME280_pressure;Samples;Min_cycle;Max_cycle;Signal;HPM_P1;HPM_P2
2023/10/30 00:01:20;;;;;;;1.38;0.90;;;;;;;;;;4999152;28;20551;-83
2023/10/30 00:03:45;;;;;;;1.08;0.90;;;;;;;;;;4996845;28;20029;-83
2023/10/30 00:06:11;;;;;;;1.05;0.90;;;;;;;;;;4997906;28;20455;-82
2023/10/30 00:08:36;;;;;;;1.80;0.98;;;;;;;;;;4998543;28;20033;-82
2023/10/30 00:11:02;;;;;;;1.10;0.80;;;;;;;;;;4994989;28;20034;-83
2023/10/30 00:13:27;;;;;;;1.00;0.77;;;;;;;;;;4998136;28;20022;-82
2023/10/30 00:15:54;;;;;;;1.10;0.82;;;;;;;;;;4969737;28;20054;-83
2023/10/30 00:18:20;;;;;;;1.98;0.90;;;;;;;;;;4988380;28;20086;-82
2023/10/30 00:20:45;;;;;;;1.20;0.80;;;;;;;;;;4995569;28;20058;-82
2023/10/30 00:23:10;;;;;;;3.28;0.80;;;;;;;;;;4995520;28;20085;-83
2023/10/30 00:25:36;;;;;;;2.17;0.80;;;;;;;;;;4998020;28;20033;-82
2023/10/30 00:28:02;;;;;;;1.23;0.80;;;;;;;;;;4988618;28;20038;-83
2023/10/30 00:30:27;;;;;;;1.83;0.95;;;;;;;;;;4992226;28;20045;-82
2023/10/30 00:32:53;;;;;;;4.78;1.00;;;;;;;;;;4993077;28;20042;-81
2023/10/30 00:35:18;;;;;;;2.10;0.90;;;;;;;;;;4969762;28;20035;-82
2023/10/30 00:37:44;;;;;;;1.40;0.90;;;;;;;;;;4988127;28;20069;-82
2023/10/30 00:40:10;;;;;;;1.98;1.00;;;;;;;;;;4990183;28;20416;-83
2023/10/30 00:42:35;;;;;;;1.55;1.15;;;;;;;;;;4978109;28;20034;-82
2023/10/30 00:45:04;;;;;;;3.53;1.27;;;;;;;;;;4979178;28;20110;-82
2023/10/30 00:47:34;;;;;;;1.83;1.20;;;;;;;;;;4996181;28;20034;-83
2023/10/30 00:50:00;;;;;;;1.30;1.00;;;;;;;;;;4975323;28;20053;-82
2023/10/30 00:52:26;;;;;;;2.47;1.20;;;;;;;;;;4974974;28;20034;-82
2023/10/30 00:54:53;;;;;;;2.88;1.52;;;;;;;;;;4995407;28;20053;-82
2023/10/30 00:57:19;;;;;;;3.35;1.38;;;;;;;;;;4996137;28;20573;-83
2023/10/30 00:59:44;;;;;;;2.20;1.20;;;;;;;;;;4990554;28;20038;-82
2023/10/30 01:02:10;;;;;;;3.13;1.10;;;;;;;;;;4977267;28;20038;-83
2023/10/30 01:04:35;;;;;;;3.53;1.13;;;;;;;;;;4980129;28;20094;-82
2023/10/30 01:07:02;;;;;;;2.75;0.90;;;;;;;;;;4981683;28;20558;-83
2023/10/30 01:09:27;;;;;;;2.03;1.00;;;;;;;;;;4955046;28;20053;-82
2023/10/30 01:11:54;;;;;;;1.92;0.90;;;;;;;;;;4989939;28;20022;-82
2023/10/30 01:14:20;;;;;;;1.55;1.00;;;;;;;;;;4991975;28;20038;-82
2023/10/30 01:16:45;;;;;;;1.23;0.90;;;;;;;;;;4987520;28;20101;-82
2023/10/30 01:19:11;;;;;;;5.80;1.13;;;;;;;;;;4988902;28;20049;-83
2023/10/30 01:21:37;;;;;;;2.38;1.15;;;;;;;;;;4974730;28;20033;-82
2023/10/30 01:24:05;;;;;;;4.93;1.10;;;;;;;;;;4996282;28;20043;-82
2023/10/30 01:26:31;;;;;;;3.47;0.98;;;;;;;;;;4980539;28;20459;-83
2023/10/30 01:28:57;;;;;;;2.55;1.00;;;;;;;;;;4975439;28;20030;-82
2023/10/30 01:31:27;;;;;;;1.65;1.10;;;;;;;;;;4991275;28;20391;-82
2023/10/30 01:33:53;;;;;;;3.38;1.00;;;;;;;;;;4974195;28;20077;-81
2023/10/30 01:36:19;;;;;;;1.17;0.90;;;;;;;;;;4978419;28;20042;-82
2023/10/30 01:38:44;;;;;;;1.10;0.82;;;;;;;;;;4983983;28;20039;-82
2023/10/30 01:41:10;;;;;;;1.17;0.80;;;;;;;;;;4972487;28;20154;-82
2023/10/30 01:43:35;;;;;;;6.07;1.00;;;;;;;;;;4997275;28;20038;-82
2023/10/30 01:46:01;;;;;;;2.13;0.90;;;;;;;;;;4971785;28;20035;-82
2023/10/30 01:48:31;;;;;;;1.35;1.00;;;;;;;;;;4993419;28;20492;-82
2023/10/30 01:50:59;;;;;;;1.50;0.90;;;;;;;;;;4977558;28;20056;-82
2023/10/30 01:53:25;;;;;;;1.90;0.93;;;;;;;;;;4994677;28;20104;-82
2023/10/30 01:55:52;;;;;;;2.83;0.95;;;;;;;;;;4990104;28;20125;-82
2023/10/30 01:58:18;;;;;;;1.55;1.05;;;;;;;;;;4983197;28;20057;-82
2023/10/30 02:00:48;;;;;;;1.85;1.00;;;;;;;;;;4985332;28;20070;-82
2023/10/30 02:03:13;;;;;;;1.73;0.98;;;;;;;;;;4992633;28;20053;-82
2023/10/30 02:05:39;;;;;;;1.00;0.80;;;;;;;;;;4994624;28;20034;-82
2023/10/30 02:08:05;;;;;;;2.22;1.05;;;;;;;;;;4953472;28;20393;-82
2023/10/30 02:10:31;;;;;;;1.75;1.10;;;;;;;;;;4976610;28;20037;-82
2023/10/30 02:12:56;;;;;;;2.30;1.10;;;;;;;;;;4996184;28;20102;-83
2023/10/30 02:15:22;;;;;;;1.55;1.00;;;;;;;;;;4979162;28;20034;-82
2023/10/30 02:17:47;;;;;;;3.88;0.82;;;;;;;;;;4994132;28;20038;-82
2023/10/30 02:20:13;;;;;;;2.08;0.95;;;;;;;;;;4993735;28;20065;-83
2023/10/30 02:22:39;;;;;;;1.75;1.00;;;;;;;;;;4979190;28;20037;-82
2023/10/30 02:25:05;;;;;;;1.63;1.00;;;;;;;;;;4997957;28;20042;-82
2023/10/30 02:27:31;;;;;;;1.75;1.00;;;;;;;;;;4962432;28;20446;-82
2023/10/30 02:29:58;;;;;;;1.77;1.00;;;;;;;;;;4992617;28;20100;-82
2023/10/30 02:32:23;;;;;;;1.85;1.00;;;;;;;;;;4985438;28;20094;-82
2023/10/30 02:34:49;;;;;;;2.25;1.20;;;;;;;;;;4983999;28;20039;-82
2023/10/30 02:37:14;;;;;;;1.20;0.98;;;;;;;;;;4997525;28;20042;-83
2023/10/30 02:39:40;;;;;;;0.95;0.80;;;;;;;;;;4995036;28;20034;-83
2023/10/30 02:42:08;;;;;;;1.25;0.90;;;;;;;;;;4989688;28;20034;-83
2023/10/30 02:44:34;;;;;;;3.75;1.00;;;;;;;;;;4991613;28;20041;-82
2023/10/30 02:46:59;;;;;;;1.38;1.00;;;;;;;;;;4982421;28;20034;-82
2023/10/30 02:49:25;;;;;;;2.72;1.00;;;;;;;;;;5000610;28;20057;-82
2023/10/30 02:51:51;;;;;;;2.33;0.90;;;;;;;;;;4972837;28;20037;-82
2023/10/30 02:54:16;;;;;;;2.17;1.00;;;;;;;;;;4969012;28;20492;-82
2023/10/30 02:56:42;;;;;;;2.65;1.00;;;;;;;;;;4983988;28;20027;-82
2023/10/30 02:59:08;;;;;;;1.80;1.20;;;;;;;;;;4999205;28;20504;-82
2023/10/30 03:01:34;;;;;;;3.05;1.02;;;;;;;;;;4973708;28;20039;-82
2023/10/30 03:04:01;;;;;;;1.73;1.20;;;;;;;;;;4996789;28;20117;-82
2023/10/30 03:06:26;;;;;;;2.55;1.40;;;;;;;;;;4975093;28;20382;-82
2023/10/30 03:08:52;;;;;;;1.40;1.10;;;;;;;;;;4990737;28;20138;-82
2023/10/30 03:11:18;;;;;;;2.88;1.00;;;;;;;;;;4983684;28;20058;-82
2023/10/30 03:13:44;;;;;;;1.45;1.00;;;;;;;;;;4982999;28;20488;-82
2023/10/30 03:16:10;;;;;;;1.45;0.80;;;;;;;;;;4977743;28;20039;-82
2023/10/30 03:18:35;;;;;;;1.30;1.00;;;;;;;;;;4982848;28;20057;-82
2023/10/30 03:21:00;;;;;;;2.10;1.00;;;;;;;;;;4993432;28;20038;-82
2023/10/30 03:23:26;;;;;;;4.82;1.00;;;;;;;;;;4961867;28;20113;-82
2023/10/30 03:25:52;;;;;;;1.15;0.90;;;;;;;;;;4975081;28;20058;-82
2023/10/30 03:28:17;;;;;;;1.48;1.00;;;;;;;;;;4989590;28;20042;-82
2023/10/30 03:30:43;;;;;;;1.15;0.90;;;;;;;;;;5000151;28;20064;-82
2023/10/30 03:33:08;;;;;;;0.95;0.75;;;;;;;;;;4952541;28;20035;-82
2023/10/30 03:35:40;;;;;;;1.42;0.90;;;;;;;;;;4975623;28;20427;-82
2023/10/30 03:38:06;;;;;;;1.17;0.80;;;;;;;;;;4980693;28;20041;-82
2023/10/30 03:40:31;;;;;;;1.38;0.85;;;;;;;;;;4995356;28;20027;-82
2023/10/30 03:42:57;;;;;;;2.67;1.02;;;;;;;;;;4995831;28;20425;-82
2023/10/30 03:45:23;;;;;;;3.70;0.93;;;;;;;;;;4983473;28;20034;-82
2023/10/30 03:47:48;;;;;;;2.00;0.90;;;;;;;;;;4976250;28;20039;-82
2023/10/30 03:50:14;;;;;;;1.60;1.00;;;;;;;;;;4993614;28;20066;-82
2023/10/30 03:52:40;;;;;;;1.98;0.98;;;;;;;;;;4997450;28;20030;-82
2023/10/30 03:55:06;;;;;;;2.08;0.95;;;;;;;;;;4986511;28;20042;-82
2023/10/30 03:57:32;;;;;;;1.63;0.80;;;;;;;;;;4988379;28;20034;-82
2023/10/30 03:59:57;;;;;;;1.15;0.90;;;;;;;;;;4995039;28;20041;-82
2023/10/30 04:02:23;;;;;;;2.80;1.00;;;;;;;;;;4991503;28;20094;-82
2023/10/30 04:04:48;;;;;;;1.88;0.98;;;;;;;;;;4968886;28;20481;-82
2023/10/30 04:07:14;;;;;;;1.13;0.80;;;;;;;;;;4972636;28;20069;-82
2023/10/30 04:09:40;;;;;;;1.08;0.80;;;;;;;;;;4998175;28;20084;-82
2023/10/30 04:12:06;;;;;;;0.85;0.80;;;;;;;;;;4996794;28;20081;-82
2023/10/30 04:14:31;;;;;;;2.85;1.38;;;;;;;;;;4997442;28;20041;-82
2023/10/30 04:16:57;;;;;;;1.98;1.00;;;;;;;;;;4992392;28;20042;-82
2023/10/30 04:19:23;;;;;;;0.95;0.82;;;;;;;;;;4980505;28;20039;-81
2023/10/30 04:21:48;;;;;;;2.00;0.90;;;;;;;;;;4992107;28;20090;-82
2023/10/30 04:24:14;;;;;;;2.95;1.00;;;;;;;;;;4991857;28;20034;-81
2023/10/30 04:26:39;;;;;;;3.25;1.20;;;;;;;;;;4993843;28;20030;-82
2023/10/30 04:29:05;;;;;;;1.00;0.80;;;;;;;;;;4992618;28;20042;-82
2023/10/30 04:31:30;;;;;;;3.63;1.75;;;;;;;;;;4977669;28;20026;-82
2023/10/30 04:33:56;;;;;;;2.00;1.30;;;;;;;;;;4987290;28;20031;-82
2023/10/30 04:36:21;;;;;;;3.50;1.30;;;;;;;;;;4984881;28;20441;-82
2023/10/30 04:38:47;;;;;;;2.45;1.30;;;;;;;;;;4994715;28;20030;-82
2023/10/30 04:41:13;;;;;;;3.25;1.10;;;;;;;;;;4982067;28;20491;-81
2023/10/30 04:43:38;;;;;;;1.77;0.85;;;;;;;;;;4990198;28;20381;-81
2023/10/30 04:46:04;;;;;;;3.15;1.02;;;;;;;;;;4986440;28;20113;-82
2023/10/30 04:48:30;;;;;;;2.78;0.95;;;;;;;;;;4988593;28;20030;-82
2023/10/30 04:50:56;;;;;;;2.63;1.10;;;;;;;;;;4996533;28;20098;-81
2023/10/30 04:53:21;;;;;;;1.45;1.20;;;;;;;;;;4996956;28;20077;-82
2023/10/30 04:55:50;;;;;;;2.00;1.20;;;;;;;;;;4974983;28;20092;-82
2023/10/30 04:58:16;;;;;;;1.65;1.23;;;;;;;;;;4987954;28;20034;-82
2023/10/30 05:00:42;;;;;;;2.22;1.20;;;;;;;;;;4990431;28;20066;-82
2023/10/30 05:03:09;;;;;;;1.88;1.15;;;;;;;;;;4976482;28;20041;-82
2023/10/30 05:05:35;;;;;;;2.38;1.35;;;;;;;;;;4978042;28;20035;-82
2023/10/30 05:08:01;;;;;;;2.80;1.10;;;;;;;;;;4974567;28;20134;-82
2023/10/30 05:10:26;;;;;;;3.08;1.38;;;;;;;;;;4993350;28;20058;-82
2023/10/30 05:12:52;;;;;;;2.20;1.15;;;;;;;;;;4981526;28;20026;-82
2023/10/30 05:15:18;;;;;;;4.85;1.30;;;;;;;;;;4988405;28;20042;-82
2023/10/30 05:17:44;;;;;;;2.75;1.20;;;;;;;;;;4987732;28;20455;-82
2023/10/30 05:20:10;;;;;;;1.33;1.10;;;;;;;;;;5000293;28;20133;-82
2023/10/30 05:22:38;;;;;;;4.70;1.00;;;;;;;;;;4983548;28;20034;-82
2023/10/30 05:25:05;;;;;;;3.25;1.00;;;;;;;;;;4997695;28;20445;-82
2023/10/30 05:27:31;;;;;;;1.75;1.00;;;;;;;;;;4986469;28;20030;-81
2023/10/30 05:29:56;;;;;;;1.83;1.10;;;;;;;;;;4977925;28;20030;-82
2023/10/30 05:32:22;;;;;;;3.80;1.08;;;;;;;;;;5002896;28;20089;-82
2023/10/30 05:34:48;;;;;;;2.17;1.17;;;;;;;;;;5002480;28;20030;-82
2023/10/30 05:37:14;;;;;;;3.35;1.05;;;;;;;;;;4991895;28;20428;-82
2023/10/30 05:39:40;;;;;;;2.10;1.20;;;;;;;;;;4992125;28;20031;-82
2023/10/30 05:42:06;;;;;;;4.88;1.13;;;;;;;;;;4996600;28;20054;-82
2023/10/30 05:44:31;;;;;;;2.42;1.10;;;;;;;;;;4996599;28;20102;-82
2023/10/30 05:46:58;;;;;;;2.60;1.10;;;;;;;;;;4994041;28;20481;-82
2023/10/30 05:49:24;;;;;;;2.92;1.40;;;;;;;;;;4999546;28;20035;-81
2023/10/30 05:51:49;;;;;;;2.05;0.93;;;;;;;;;;4997781;28;20030;-82
2023/10/30 05:54:15;;;;;;;3.85;1.30;;;;;;;;;;4985351;28;20495;-82
2023/10/30 05:56:40;;;;;;;2.50;1.00;;;;;;;;;;4989195;28;20392;-81
2023/10/30 05:59:06;;;;;;;3.08;1.00;;;;;;;;;;4985373;28;20098;-83
2023/10/30 06:01:31;;;;;;;1.95;0.90;;;;;;;;;;4992782;28;20030;-82
2023/10/30 06:03:57;;;;;;;2.30;1.10;;;;;;;;;;4990596;28;20092;-83
2023/10/30 06:06:22;;;;;;;1.48;1.00;;;;;;;;;;4987008;28;20105;-82
2023/10/30 06:08:48;;;;;;;2.63;1.38;;;;;;;;;;4988376;28;20120;-82
2023/10/30 06:11:13;;;;;;;4.40;1.15;;;;;;;;;;4986706;28;20050;-82
2023/10/30 06:13:39;;;;;;;1.92;1.20;;;;;;;;;;4995397;28;20045;-82
2023/10/30 06:16:04;;;;;;;2.38;1.20;;;;;;;;;;4995877;28;20050;-82
2023/10/30 06:18:30;;;;;;;3.22;1.10;;;;;;;;;;4983637;28;20046;-82
2023/10/30 06:20:56;;;;;;;1.58;1.20;;;;;;;;;;4972396;28;20085;-82
2023/10/30 06:23:21;;;;;;;1.70;1.00;;;;;;;;;;4997339;28;20115;-82
2023/10/30 06:25:48;;;;;;;3.22;1.10;;;;;;;;;;4998557;28;20411;-82
2023/10/30 06:28:15;;;;;;;2.08;1.05;;;;;;;;;;4992457;28;20122;-82
2023/10/30 06:30:41;;;;;;;2.10;0.93;;;;;;;;;;4995876;28;20113;-82
2023/10/30 06:33:06;;;;;;;3.20;1.13;;;;;;;;;;4998027;28;20108;-82
2023/10/30 06:35:32;;;;;;;6.90;4.22;;;;;;;;;;4991862;28;20034;-82
2023/10/30 06:37:57;;;;;;;4.82;3.15;;;;;;;;;;4987716;28;20039;-82
2023/10/30 06:40:23;;;;;;;4.75;2.92;;;;;;;;;;4993635;28;20714;-81
2023/10/30 06:42:48;;;;;;;2.25;1.13;;;;;;;;;;4994634;28;20414;-80
2023/10/30 06:45:14;;;;;;;2.60;1.30;;;;;;;;;;4993394;28;20068;-81
2023/10/30 06:47:39;;;;;;;1.58;0.90;;;;;;;;;;4994018;28;20031;-81
2023/10/30 06:50:05;;;;;;;1.83;0.90;;;;;;;;;;4986748;28;20057;-80
2023/10/30 06:52:31;;;;;;;2.38;1.10;;;;;;;;;;4983690;28;20030;-81
2023/10/30 06:54:56;;;;;;;4.05;1.30;;;;;;;;;;4996883;28;20022;-81
2023/10/30 06:57:22;;;;;;;5.30;1.33;;;;;;;;;;4991687;28;20086;-80
2023/10/30 06:59:49;;;;;;;4.07;2.33;;;;;;;;;;4983304;28;20033;-80
2023/10/30 07:02:14;;;;;;;6.72;3.65;;;;;;;;;;4995924;28;20057;-80
2023/10/30 07:04:40;;;;;;;9.55;3.85;;;;;;;;;;4993166;28;20031;-80
2023/10/30 07:07:05;;;;;;;8.50;3.38;;;;;;;;;;4990391;28;20038;-81
2023/10/30 07:09:31;;;;;;;8.02;3.67;;;;;;;;;;4993603;28;20066;-81
2023/10/30 07:11:56;;;;;;;3.25;2.13;;;;;;;;;;4994917;28;20534;-81
2023/10/30 07:14:22;;;;;;;2.65;1.65;;;;;;;;;;4995013;28;20085;-81
2023/10/30 07:16:47;;;;;;;5.38;1.92;;;;;;;;;;4993185;28;20034;-81
2023/10/30 07:19:15;;;;;;;3.40;1.70;;;;;;;;;;4991875;28;20038;-81
2023/10/30 07:21:41;;;;;;;6.28;2.03;;;;;;;;;;4990842;28;20121;-81
2023/10/30 07:24:07;;;;;;;3.42;1.90;;;;;;;;;;4998783;28;20080;-81
2023/10/30 07:26:32;;;;;;;3.15;2.13;;;;;;;;;;4980698;28;20038;-81
2023/10/30 07:28:57;;;;;;;4.90;1.90;;;;;;;;;;4993112;28;20034;-81
2023/10/30 07:31:23;;;;;;;4.65;1.77;;;;;;;;;;4987210;28;20027;-81
2023/10/30 07:33:49;;;;;;;5.95;2.08;;;;;;;;;;4951863;28;20117;-81
2023/10/30 07:36:15;;;;;;;5.45;1.88;;;;;;;;;;4995564;28;20488;-81
2023/10/30 07:38:41;;;;;;;6.30;2.78;;;;;;;;;;4987894;28;20069;-81
2023/10/30 07:41:07;;;;;;;6.20;2.47;;;;;;;;;;4992862;28;20061;-80
2023/10/30 07:43:34;;;;;;;5.15;2.08;;;;;;;;;;4993484;28;20498;-80
2023/10/30 07:45:59;;;;;;;4.78;1.80;;;;;;;;;;4992285;28;20435;-80
2023/10/30 07:48:26;;;;;;;2.28;1.45;;;;;;;;;;4992910;28;20038;-82
2023/10/30 07:50:52;;;;;;;3.85;1.90;;;;;;;;;;5001359;28;20119;-82
2023/10/30 07:53:18;;;;;;;3.88;2.13;;;;;;;;;;5001131;28;20436;-85
2023/10/30 07:55:46;;;;;;;2.92;1.75;;;;;;;;;;4997212;28;20239;-83
2023/10/30 07:58:12;;;;;;;4.65;2.10;;;;;;;;;;4993264;28;20088;-82
2023/10/30 08:00:38;;;;;;;5.07;1.30;;;;;;;;;;4963224;28;20037;-81
2023/10/30 08:03:05;;;;;;;4.43;1.65;;;;;;;;;;4993629;28;20046;-79
2023/10/30 08:05:32;;;;;;;8.93;2.72;;;;;;;;;;4999759;28;20034;-82
2023/10/30 08:07:57;;;;;;;7.20;3.92;;;;;;;;;;4998553;28;20045;-82
2023/10/30 08:10:23;;;;;;;4.53;3.00;;;;;;;;;;4997818;28;20038;-82
2023/10/30 08:12:48;;;;;;;2.80;1.70;;;;;;;;;;4993035;28;20061;-81
2023/10/30 08:15:15;;;;;;;4.97;1.40;;;;;;;;;;4989406;28;20087;-82
2023/10/30 08:17:40;;;;;;;5.32;1.42;;;;;;;;;;5002597;28;20054;-81
2023/10/30 08:20:06;;;;;;;3.00;1.30;;;;;;;;;;4995427;28;20110;-81
2023/10/30 08:22:34;;;;;;;4.85;1.60;;;;;;;;;;4981461;28;20027;-82
2023/10/30 08:25:00;;;;;;;4.07;2.00;;;;;;;;;;4995586;28;20073;-82
2023/10/30 08:27:26;;;;;;;3.50;2.25;;;;;;;;;;4996888;28;20018;-83
2023/10/30 08:29:51;;;;;;;3.42;1.75;;;;;;;;;;4997312;28;20034;-81
2023/10/30 08:32:16;;;;;;;4.25;1.83;;;;;;;;;;5004148;28;20111;-82
2023/10/30 08:34:42;;;;;;;2.25;1.30;;;;;;;;;;4997347;28;20042;-81
2023/10/30 08:37:07;;;;;;;4.32;1.33;;;;;;;;;;4991348;28;20114;-81
2023/10/30 08:39:33;;;;;;;2.72;1.10;;;;;;;;;;4980930;28;20070;-81
2023/10/30 08:41:58;;;;;;;2.58;1.10;;;;;;;;;;4997178;28;20049;-82
2023/10/30 08:44:24;;;;;;;1.52;1.00;;;;;;;;;;4995049;28;20049;-80
2023/10/30 08:46:51;;;;;;;2.13;1.00;;;;;;;;;;4999031;28;20039;-81
2023/10/30 08:49:16;;;;;;;1.75;1.10;;;;;;;;;;5004605;28;20038;-82
2023/10/30 08:51:42;;;;;;;2.97;0.98;;;;;;;;;;4970196;28;20066;-81
2023/10/30 08:54:09;;;;;;;3.25;1.10;;;;;;;;;;4977103;28;20045;-81
2023/10/30 08:56:36;;;;;;;1.48;1.10;;;;;;;;;;4990183;28;20118;-81
2023/10/30 08:59:03;;;;;;;5.50;1.00;;;;;;;;;;4991607;28;20049;-81
2023/10/30 09:01:31;;;;;;;2.65;1.08;;;;;;;;;;4989788;28;20053;-81
2023/10/30 09:03:57;;;;;;;3.80;1.10;;;;;;;;;;4988886;28;20041;-82
2023/10/30 09:06:22;;;;;;;5.30;1.10;;;;;;;;;;4986609;28;20026;-81
2023/10/30 09:08:47;;;;;;;1.52;0.90;;;;;;;;;;4990683;28;20224;-79
2023/10/30 09:11:13;;;;;;;2.50;1.00;;;;;;;;;;4996631;28;20105;-78
2023/10/30 09:13:38;;;;;;;4.72;0.80;;;;;;;;;;4990039;28;20027;-82
2023/10/30 09:16:05;;;;;;;1.10;0.90;;;;;;;;;;4973968;28;20050;-86
2023/10/30 09:18:30;;;;;;;5.07;1.00;;;;;;;;;;4971652;28;20105;-85
2023/10/30 09:20:55;;;;;;;4.15;1.10;;;;;;;;;;4984498;28;20175;-82
2023/10/30 09:23:21;;;;;;;1.80;1.20;;;;;;;;;;4973096;28;20038;-81
2023/10/30 09:25:46;;;;;;;2.33;1.15;;;;;;;;;;4991639;28;20026;-81
2023/10/30 09:28:12;;;;;;;1.85;0.95;;;;;;;;;;4992782;28;20049;-81
2023/10/30 09:30:37;;;;;;;2.75;0.98;;;;;;;;;;4974497;28;20026;-81
2023/10/30 09:33:03;;;;;;;4.22;1.00;;;;;;;;;;4990046;28;20508;-81
2023/10/30 09:35:30;;;;;;;3.53;1.23;;;;;;;;;;4985099;28;20086;-81
2023/10/30 09:37:56;;;;;;;2.67;1.40;;;;;;;;;;4982972;28;20031;-81
2023/10/30 09:40:28;;;;;;;4.72;1.30;;;;;;;;;;4991477;28;20026;-81
2023/10/30 09:42:54;;;;;;;1.23;0.95;;;;;;;;;;4990741;28;20041;-80
2023/10/30 09:45:25;;;;;;;6.95;1.40;;;;;;;;;;4978132;28;20389;-81
2023/10/30 09:47:52;;;;;;;5.15;1.52;;;;;;;;;;4987953;28;20054;-81
2023/10/30 09:50:19;;;;;;;3.00;1.85;;;;;;;;;;4989543;28;20046;-81
2023/10/30 09:52:51;;;;;;;6.10;2.47;;;;;;;;;;4992758;28;20053;-81
2023/10/30 09:55:22;;;;;;;6.15;1.80;;;;;;;;;;4990564;28;20100;-81
2023/10/30 09:57:48;;;;;;;2.65;1.33;;;;;;;;;;4989029;28;20404;-81
2023/10/30 10:00:16;;;;;;;2.42;1.20;;;;;;;;;;4991633;28;20180;-81
2023/10/30 10:02:42;;;;;;;5.50;1.77;;;;;;;;;;4988777;28;20593;-82
2023/10/30 10:05:09;;;;;;;2.95;1.15;;;;;;;;;;4990449;28;20031;-81
2023/10/30 10:07:35;;;;;;;4.47;1.13;;;;;;;;;;4994604;28;20473;-81
2023/10/30 10:10:03;;;;;;;2.25;1.20;;;;;;;;;;4992533;28;20035;-81
2023/10/30 10:12:30;;;;;;;6.53;1.40;;;;;;;;;;4987957;28;20106;-82
2023/10/30 10:14:56;;;;;;;3.22;1.10;;;;;;;;;;4993748;28;20109;-81
2023/10/30 10:17:22;;;;;;;1.25;1.02;;;;;;;;;;4978287;28;20089;-83
2023/10/30 10:19:47;;;;;;;2.22;1.10;;;;;;;;;;4990136;28;20038;-83
2023/10/30 10:22:26;;;;;;;1.88;1.00;;;;;;;;;;5001932;28;20034;-82
2023/10/30 10:24:52;;;;;;;2.67;1.02;;;;;;;;;;5000611;28;20118;-83
2023/10/30 10:27:19;;;;;;;4.88;1.13;;;;;;;;;;5000776;28;20065;-82
2023/10/30 10:29:52;;;;;;;3.67;1.40;;;;;;;;;;4996267;28;20073;-82
2023/10/30 10:32:17;;;;;;;4.27;1.40;;;;;;;;;;4994417;28;20031;-83
2023/10/30 10:34:43;;;;;;;1.90;1.13;;;;;;;;;;4994038;28;20284;-83
2023/10/30 10:37:17;;;;;;;2.40;1.10;;;;;;;;;;4993135;28;20100;-82
2023/10/30 10:39:49;;;;;;;3.47;1.10;;;;;;;;;;4986148;28;20038;-83
2023/10/30 10:42:19;;;;;;;2.78;1.00;;;;;;;;;;4987457;28;20042;-83
2023/10/30 10:44:45;;;;;;;1.25;0.95;;;;;;;;;;5000206;28;20040;-87
2023/10/30 10:47:11;;;;;;;3.50;1.13;;;;;;;;;;4996358;28;20081;-83
2023/10/30 10:49:37;;;;;;;1.40;1.00;;;;;;;;;;4986086;28;20045;-82
2023/10/30 10:52:10;;;;;;;3.45;1.08;;;;;;;;;;5003915;28;20131;-82
2023/10/30 10:54:46;;;;;;;1.13;0.90;;;;;;;;;;5002553;28;20073;-82
2023/10/30 10:57:16;;;;;;;1.50;1.10;;;;;;;;;;4999952;28;20066;-82
2023/10/30 10:59:45;;;;;;;5.13;2.70;;;;;;;;;;4995030;28;20401;-82
2023/10/30 11:02:20;;;;;;;5.00;1.70;;;;;;;;;;4991385;28;20041;-82
2023/10/30 11:04:47;;;;;;;2.47;1.13;;;;;;;;;;4983674;28;20439;-83
2023/10/30 11:07:14;;;;;;;2.33;1.00;;;;;;;;;;4996204;28;20042;-83
2023/10/30 11:09:49;;;;;;;7.82;1.00;;;;;;;;;;4996531;28;20026;-84
2023/10/30 11:12:30;;;;;;;2.42;0.90;;;;;;;;;;4993125;28;20043;-83
2023/10/30 11:15:12;;;;;;;1.30;0.90;;;;;;;;;;4984551;28;20034;-83
2023/10/30 11:17:38;;;;;;;1.48;0.80;;;;;;;;;;5000444;28;20092;-83
2023/10/30 11:20:07;;;;;;;4.32;1.00;;;;;;;;;;5000523;28;20053;-84
2023/10/30 11:22:40;;;;;;;1.83;0.88;;;;;;;;;;4996709;28;20027;-83
2023/10/30 11:25:27;;;;;;;4.28;0.95;;;;;;;;;;4972054;28;20045;-84
2023/10/30 11:27:52;;;;;;;2.42;0.88;;;;;;;;;;4993231;28;20114;-83
2023/10/30 11:30:22;;;;;;;1.85;0.90;;;;;;;;;;4994530;28;20065;-83
2023/10/30 11:32:48;;;;;;;3.13;0.93;;;;;;;;;;4992580;28;20037;-86
2023/10/30 11:35:13;;;;;;;5.32;1.27;;;;;;;;;;4998289;28;20042;-84
2023/10/30 11:37:40;;;;;;;4.50;1.42;;;;;;;;;;4990319;28;20054;-84
2023/10/30 11:40:09;;;;;;;2.17;1.02;;;;;;;;;;4991583;28;20149;-82
2023/10/30 11:42:40;;;;;;;7.20;1.38;;;;;;;;;;4991427;28;20047;-82
2023/10/30 11:45:28;;;;;;;1.98;1.10;;;;;;;;;;4987992;28;20660;-84
2023/10/30 11:48:05;;;;;;;2.75;1.10;;;;;;;;;;4994028;28;20027;-84
2023/10/30 11:50:38;;;;;;;3.10;1.20;;;;;;;;;;4994064;28;20038;-85
2023/10/30 11:53:08;;;;;;;;;;;;;;;;;;4988312;28;20522;-84
2023/10/30 11:55:36;;;;;;;3.10;1.00;;;;;;;;;;4964906;28;20391;-84
2023/10/30 11:58:02;;;;;;;1.42;1.00;;;;;;;;;;4977180;28;20042;-85
2023/10/30 12:00:28;;;;;;;3.97;1.60;;;;;;;;;;4990976;28;20034;-84
2023/10/30 12:02:54;;;;;;;4.43;1.48;;;;;;;;;;4982169;28;20038;-84
2023/10/30 12:05:20;;;;;;;3.10;1.30;;;;;;;;;;4991803;28;20035;-84
2023/10/30 12:07:45;;;;;;;2.83;1.50;;;;;;;;;;4973773;28;20030;-85
2023/10/30 12:10:11;;;;;;;3.55;1.70;;;;;;;;;;4986492;28;20035;-85
2023/10/30 12:12:37;;;;;;;4.10;2.30;;;;;;;;;;4990325;28;20412;-84
2023/10/30 12:15:03;;;;;;;3.78;1.77;;;;;;;;;;4971248;28;20061;-85
2023/10/30 12:17:29;;;;;;;6.03;2.10;;;;;;;;;;4986763;28;20524;-84
2023/10/30 12:19:54;;;;;;;6.15;1.40;;;;;;;;;;4994391;28;20054;-84
2023/10/30 12:22:21;;;;;;;5.28;1.73;;;;;;;;;;4987234;28;20030;-84
2023/10/30 12:24:48;;;;;;;4.22;2.20;;;;;;;;;;4988796;28;20061;-84
2023/10/30 12:27:21;;;;;;;3.47;1.75;;;;;;;;;;4993007;28;20049;-85
2023/10/30 12:29:52;;;;;;;3.22;1.30;;;;;;;;;;4987394;28;20035;-84
2023/10/30 12:32:17;;;;;;;6.40;4.43;;;;;;;;;;4993386;28;20045;-85
2023/10/30 12:34:43;;;;;;;4.97;1.83;;;;;;;;;;4991156;28;20030;-84
2023/10/30 12:37:17;;;;;;;5.55;1.52;;;;;;;;;;4992614;28;20034;-85
2023/10/30 12:40:09;;;;;;;3.53;1.40;;;;;;;;;;4964136;28;20055;-85
2023/10/30 12:42:42;;;;;;;5.53;1.38;;;;;;;;;;4992193;28;20037;-85
2023/10/30 12:45:11;;;;;;;2.45;1.38;;;;;;;;;;4990625;28;20046;-85
2023/10/30 12:47:37;;;;;;;1.98;1.60;;;;;;;;;;4990813;28;20026;-85
2023/10/30 12:50:03;;;;;;;2.58;1.20;;;;;;;;;;4992492;28;20531;-86
2023/10/30 12:52:29;;;;;;;3.30;1.40;;;;;;;;;;4992610;28;20038;-84
2023/10/30 12:54:55;;;;;;;5.50;2.83;;;;;;;;;;4993332;28;20030;-85
2023/10/30 12:57:21;;;;;;;3.85;2.08;;;;;;;;;;4999653;28;20073;-86
2023/10/30 12:59:46;;;;;;;4.22;2.30;;;;;;;;;;4979876;28;20710;-85
2023/10/30 13:02:12;;;;;;;3.20;2.03;;;;;;;;;;4991373;28;20041;-85
2023/10/30 13:04:38;;;;;;;4.90;2.20;;;;;;;;;;4992138;28;20034;-85
2023/10/30 13:07:03;;;;;;;5.13;2.20;;;;;;;;;;4993670;28;20057;-86
2023/10/30 13:09:29;;;;;;;3.88;1.60;;;;;;;;;;4994377;28;20034;-86
2023/10/30 13:11:54;;;;;;;4.13;1.50;;;;;;;;;;4998251;28;20042;-85
2023/10/30 13:14:20;;;;;;;2.75;1.60;;;;;;;;;;4995968;28;20097;-86
2023/10/30 13:16:45;;;;;;;2.42;1.73;;;;;;;;;;4990914;28;20038;-86
2023/10/30 13:19:11;;;;;;;3.47;1.83;;;;;;;;;;4994248;28;20114;-86
2023/10/30 13:21:36;;;;;;;4.65;2.80;;;;;;;;;;4995509;28;20038;-85
2023/10/30 13:24:03;;;;;;;7.18;2.92;;;;;;;;;;4996191;28;20124;-86
2023/10/30 13:26:29;;;;;;;5.70;2.78;;;;;;;;;;4988126;28;20023;-85
2023/10/30 13:28:54;;;;;;;5.82;2.45;;;;;;;;;;4989587;28;20037;-85
2023/10/30 13:31:19;;;;;;;4.13;2.22;;;;;;;;;;4991920;28;20122;-85
2023/10/30 13:33:46;;;;;;;4.55;1.90;;;;;;;;;;4987379;28;20042;-85
2023/10/30 13:36:12;;;;;;;5.10;1.50;;;;;;;;;;4991438;28;20035;-85
2023/10/30 13:38:38;;;;;;;3.72;1.73;;;;;;;;;;5003200;28;20061;-85
2023/10/30 13:41:03;;;;;;;3.00;1.85;;;;;;;;;;5002944;28;20030;-85
2023/10/30 13:43:29;;;;;;;8.60;3.10;;;;;;;;;;4998751;28;20042;-85
2023/10/30 13:45:54;;;;;;;5.38;2.50;;;;;;;;;;4992667;28;20102;-86
2023/10/30 13:48:20;;;;;;;6.53;2.45;;;;;;;;;;4982986;28;20034;-85
2023/10/30 13:50:45;;;;;;;4.50;2.25;;;;;;;;;;5000877;28;20566;-85
2023/10/30 13:53:11;;;;;;;8.25;3.05;;;;;;;;;;5000634;28;20038;-86
2023/10/30 13:55:36;;;;;;;5.45;2.03;;;;;;;;;;4998173;28;20065;-86
2023/10/30 13:58:02;;;;;;;4.97;1.80;;;;;;;;;;4997944;28;20065;-85
2023/10/30 14:00:30;;;;;;;3.13;2.00;;;;;;;;;;4999568;28;20499;-85
2023/10/30 14:02:56;;;;;;;8.20;2.03;;;;;;;;;;4967520;28;20447;-85
2023/10/30 14:05:21;;;;;;;5.70;2.10;;;;;;;;;;4992808;28;20488;-87
2023/10/30 14:07:48;;;;;;;4.55;1.90;;;;;;;;;;4995301;28;20555;-85
2023/10/30 14:10:13;;;;;;;3.92;2.10;;;;;;;;;;4989838;28;20041;-85
2023/10/30 14:12:38;;;;;;;9.95;2.92;;;;;;;;;;4991725;28;20038;-85
2023/10/30 14:15:04;;;;;;;7.68;3.53;;;;;;;;;;4990201;28;20043;-84
2023/10/30 14:17:30;;;;;;;9.02;4.10;;;;;;;;;;4995345;28;20041;-84
2023/10/30 14:19:55;;;;;;;7.63;4.40;;;;;;;;;;4993276;28;20057;-84
2023/10/30 14:22:21;;;;;;;10.45;6.63;;;;;;;;;;4990084;28;20049;-85
2023/10/30 14:24:47;;;;;;;14.13;6.55;;;;;;;;;;4993262;28;20092;-85
2023/10/30 14:27:13;;;;;;;11.93;6.00;;;;;;;;;;4983921;28;20508;-84
2023/10/30 14:29:39;;;;;;;9.30;4.60;;;;;;;;;;4992225;28;20084;-85
2023/10/30 14:32:04;;;;;;;7.25;4.22;;;;;;;;;;4998297;28;20038;-85
2023/10/30 14:34:30;;;;;;;12.63;6.15;;;;;;;;;;4991177;28;20034;-85
2023/10/30 14:36:56;;;;;;;8.93;4.88;;;;;;;;;;4994138;28;20093;-88
2023/10/30 14:39:21;;;;;;;6.45;3.72;;;;;;;;;;4992328;28;20656;-85